sensor_id;sensor_type;location;lat;lon;timestamp;temperature;humidity
59469;DHT22;45277;52.768;18.262;2024-03-23T00:53:45;9.40;99.90
59469;DHT22;45277;52.768;18.262;2024-03-23T00:55:16;9.40;99.90
59469;DHT22;45277;52.768;18.262;2024-03-23T00:56:48;9.30;99.90
59469;DHT22;45277;52.768;18.262;2024-03-23T00:58:19;9.30;99.90
59469;DHT22;45277;52.768;18.262;2024-03-23T00:59:50;9.30;99.90
59469;DHT22;45277;52.768;18.262;2024-03-23T01:01:22;9.30;99.90
59469;DHT22;45277;52.768;18.262;2024-03-23T01:02:53;9.30;99.90
59469;DHT22;45277;52.768;18.262;2024-03-23T01:04:24;9.30;99.90
59469;DHT22;45277;52.768;18.262;2024-03-23T01:06:02;9.30;99.90
59469;DHT22;45277;52.768;18.262;2024-03-23T01:07:34;9.30;99.90
59469;DHT22;45277;52.768;18.262;2024-03-23T01:09:05;9.20;99.90
59469;DHT22;45277;52.768;18.262;2024-03-23T01:10:37;9.20;99.90
59469;DHT22;45277;52.768;18.262;2024-03-23T01:12:08;9.20;99.90
59469;DHT22;45277;52.768;18.262;2024-03-23T01:13:39;9.20;99.90
59469;DHT22;45277;52.768;18.262;2024-03-23T01:15:11;9.10;99.90
59469;DHT22;45277;52.768;18.262;2024-03-23T01:16:42;9.20;99.90
59469;DHT22;45277;52.768;18.262;2024-03-23T01:18:13;9.20;99.90
59469;DHT22;45277;52.768;18.262;2024-03-23T01:19:44;9.20;99.90
59469;DHT22;45277;52.768;18.262;2024-03-23T01:21:15;9.20;99.90
59469;DHT22;45277;52.768;18.262;2024-03-23T01:22:47;9.20;99.90
59469;DHT22;45277;52.768;18.262;2024-03-23T01:24:18;9.20;99.90
59469;DHT22;45277;52.768;18.262;2024-03-23T01:25:53;9.20;99.90
59469;DHT22;45277;52.768;18.262;2024-03-23T01:27:24;9.20;99.90
59469;DHT22;45277;52.768;18.262;2024-03-23T01:28:56;9.20;99.90
59469;DHT22;45277;52.768;18.262;2024-03-23T01:30:27;9.20;99.90
59469;DHT22;45277;52.768;18.262;2024-03-23T01:31:58;9.20;99.90
59469;DHT22;45277;52.768;18.262;2024-03-23T01:33:30;9.30;99.90
59469;DHT22;45277;52.768;18.262;2024-03-23T01:35:01;9.20;99.90
59469;DHT22;45277;52.768;18.262;2024-03-23T01:36:32;9.20;99.90
59469;DHT22;45277;52.768;18.262;2024-03-23T01:38:04;9.20;99.90
59469;DHT22;45277;52.768;18.262;2024-03-23T01:39:35;9.20;99.90
59469;DHT22;45277;52.768;18.262;2024-03-23T01:41:07;9.20;99.90
59469;DHT22;45277;52.768;18.262;2024-03-23T01:42:38;9.20;99.90
59469;DHT22;45277;52.768;18.262;2024-03-23T01:44:10;9.10;99.90
59469;DHT22;45277;52.768;18.262;2024-03-23T01:45:41;9.20;99.90
59469;DHT22;45277;52.768;18.262;2024-03-23T01:47:13;9.10;99.90
59469;DHT22;45277;52.768;18.262;2024-03-23T01:48:44;9.20;99.90
59469;DHT22;45277;52.768;18.262;2024-03-23T01:50:16;9.10;99.90
59469;DHT22;45277;52.768;18.262;2024-03-23T01:51:48;9.10;99.90
59469;DHT22;45277;52.768;18.262;2024-03-23T01:53:19;9.10;99.90
59469;DHT22;45277;52.768;18.262;2024-03-23T01:54:52;9.10;99.90
59469;DHT22;45277;52.768;18.262;2024-03-23T01:56:24;9.10;99.90
59469;DHT22;45277;52.768;18.262;2024-03-23T01:57:57;9.10;99.90
59469;DHT22;45277;52.768;18.262;2024-03-23T01:59:28;9.10;99.90
59469;DHT22;45277;52.768;18.262;2024-03-23T02:00:59;9.10;99.90
59469;DHT22;45277;52.768;18.262;2024-03-23T02:02:31;9.10;99.90
59469;DHT22;45277;52.768;18.262;2024-03-23T02:04:02;9.20;99.90
59469;DHT22;45277;52.768;18.262;2024-03-23T02:05:33;9.20;99.90
59469;DHT22;45277;52.768;18.262;2024-03-23T02:07:07;9.20;99.90
59469;DHT22;45277;52.768;18.262;2024-03-23T02:08:39;9.20;99.90
59469;DHT22;45277;52.768;18.262;2024-03-23T02:10:11;9.20;99.90
59469;DHT22;45277;52.768;18.262;2024-03-23T02:11:45;9.20;99.90
59469;DHT22;45277;52.768;18.262;2024-03-23T02:13:18;9.30;99.90
59469;DHT22;45277;52.768;18.262;2024-03-23T02:14:49;9.30;99.90
59469;DHT22;45277;52.768;18.262;2024-03-23T02:16:20;9.30;99.90
59469;DHT22;45277;52.768;18.262;2024-03-23T02:17:51;9.30;99.90
59469;DHT22;45277;52.768;18.262;2024-03-23T02:19:23;9.30;99.90
59469;DHT22;45277;52.768;18.262;2024-03-23T02:20:55;9.30;99.90
59469;DHT22;45277;52.768;18.262;2024-03-23T02:22:37;9.20;99.90
59469;DHT22;45277;52.768;18.262;2024-03-23T02:24:08;9.20;99.90
59469;DHT22;45277;52.768;18.262;2024-03-23T02:25:40;9.20;99.90
59469;DHT22;45277;52.768;18.262;2024-03-23T02:27:12;9.20;99.90
59469;DHT22;45277;52.768;18.262;2024-03-23T02:28:43;9.20;99.90
59469;DHT22;45277;52.768;18.262;2024-03-23T02:30:14;9.20;99.90
59469;DHT22;45277;52.768;18.262;2024-03-23T02:31:46;9.20;99.90
59469;DHT22;45277;52.768;18.262;2024-03-23T02:33:17;9.20;99.90
59469;DHT22;45277;52.768;18.262;2024-03-23T02:34:49;9.10;99.90
59469;DHT22;45277;52.768;18.262;2024-03-23T02:36:20;9.10;99.90
59469;DHT22;45277;52.768;18.262;2024-03-23T02:37:52;9.10;99.90
59469;DHT22;45277;52.768;18.262;2024-03-23T02:39:24;9.10;99.90
59469;DHT22;45277;52.768;18.262;2024-03-23T02:41:00;9.20;99.90
59469;DHT22;45277;52.768;18.262;2024-03-23T02:42:32;9.30;99.90
59469;DHT22;45277;52.768;18.262;2024-03-23T02:44:03;9.30;99.90
59469;DHT22;45277;52.768;18.262;2024-03-23T02:45:34;9.10;99.90
59469;DHT22;45277;52.768;18.262;2024-03-23T02:47:06;9.00;99.90
59469;DHT22;45277;52.768;18.262;2024-03-23T02:48:37;8.80;99.90
59469;DHT22;45277;52.768;18.262;2024-03-23T02:50:08;8.60;99.90
59469;DHT22;45277;52.768;18.262;2024-03-23T02:51:40;8.40;99.90
59469;DHT22;45277;52.768;18.262;2024-03-23T02:53:11;8.20;99.90
59469;DHT22;45277;52.768;18.262;2024-03-23T02:54:42;8.00;99.90
59469;DHT22;45277;52.768;18.262;2024-03-23T02:56:16;8.00;99.90
59469;DHT22;45277;52.768;18.262;2024-03-23T02:57:47;7.90;99.90
59469;DHT22;45277;52.768;18.262;2024-03-23T02:59:18;7.80;99.90
59469;DHT22;45277;52.768;18.262;2024-03-23T03:00:50;7.70;99.90
59469;DHT22;45277;52.768;18.262;2024-03-23T03:02:21;7.70;99.90
59469;DHT22;45277;52.768;18.262;2024-03-23T03:03:52;7.60;99.90
59469;DHT22;45277;52.768;18.262;2024-03-23T03:05:23;7.60;99.90
59469;DHT22;45277;52.768;18.262;2024-03-23T03:06:54;7.50;99.90
59469;DHT22;45277;52.768;18.262;2024-03-23T03:08:26;7.40;99.90
59469;DHT22;45277;52.768;18.262;2024-03-23T03:09:57;7.30;99.90
59469;DHT22;45277;52.768;18.262;2024-03-23T03:11:28;7.30;99.90
59469;DHT22;45277;52.768;18.262;2024-03-23T03:12:59;7.30;99.90
59469;DHT22;45277;52.768;18.262;2024-03-23T03:14:31;7.30;99.90
59469;DHT22;45277;52.768;18.262;2024-03-23T03:16:02;7.40;99.90
59469;DHT22;45277;52.768;18.262;2024-03-23T03:17:33;7.30;99.90
59469;DHT22;45277;52.768;18.262;2024-03-23T03:19:05;7.30;99.90
59469;DHT22;45277;52.768;18.262;2024-03-23T03:20:40;7.30;99.90
59469;DHT22;45277;52.768;18.262;2024-03-23T03:22:11;7.30;99.90
59469;DHT22;45277;52.768;18.262;2024-03-23T03:23:43;7.40;99.90
59469;DHT22;45277;52.768;18.262;2024-03-23T03:25:15;7.30;99.90
59469;DHT22;45277;52.768;18.262;2024-03-23T03:26:46;7.30;99.90
59469;DHT22;45277;52.768;18.262;2024-03-23T03:28:18;7.30;99.90
59469;DHT22;45277;52.768;18.262;2024-03-23T03:29:49;7.30;99.90
59469;DHT22;45277;52.768;18.262;2024-03-23T03:31:20;7.40;99.90
59469;DHT22;45277;52.768;18.262;2024-03-23T03:32:54;7.30;99.90
59469;DHT22;45277;52.768;18.262;2024-03-23T03:34:26;7.30;99.90
59469;DHT22;45277;52.768;18.262;2024-03-23T03:35:57;7.30;99.90
59469;DHT22;45277;52.768;18.262;2024-03-23T03:37:28;7.30;99.90
59469;DHT22;45277;52.768;18.262;2024-03-23T03:38:59;7.30;99.90
59469;DHT22;45277;52.768;18.262;2024-03-23T03:40:30;7.20;99.90
59469;DHT22;45277;52.768;18.262;2024-03-23T03:42:02;7.20;99.90
59469;DHT22;45277;52.768;18.262;2024-03-23T03:43:37;7.10;99.90
59469;DHT22;45277;52.768;18.262;2024-03-23T03:45:09;7.10;99.90
59469;DHT22;45277;52.768;18.262;2024-03-23T03:46:40;7.10;99.90
59469;DHT22;45277;52.768;18.262;2024-03-23T03:48:11;7.10;99.90
59469;DHT22;45277;52.768;18.262;2024-03-23T03:49:42;7.10;99.90
59469;DHT22;45277;52.768;18.262;2024-03-23T03:51:14;7.00;99.90
59469;DHT22;45277;52.768;18.262;2024-03-23T03:52:45;7.10;99.90
59469;DHT22;45277;52.768;18.262;2024-03-23T03:54:16;7.10;99.90
59469;DHT22;45277;52.768;18.262;2024-03-23T03:55:48;7.10;99.90
59469;DHT22;45277;52.768;18.262;2024-03-23T03:57:19;7.10;99.90
59469;DHT22;45277;52.768;18.262;2024-03-23T03:58:50;7.20;99.90
59469;DHT22;45277;52.768;18.262;2024-03-23T04:00:22;7.30;99.90
59469;DHT22;45277;52.768;18.262;2024-03-23T04:01:53;7.40;99.90
59469;DHT22;45277;52.768;18.262;2024-03-23T04:03:24;7.40;99.90
59469;DHT22;45277;52.768;18.262;2024-03-23T04:04:55;7.30;99.90
59469;DHT22;45277;52.768;18.262;2024-03-23T04:06:26;7.30;99.90
59469;DHT22;45277;52.768;18.262;2024-03-23T04:07:58;7.20;99.90
59469;DHT22;45277;52.768;18.262;2024-03-23T04:09:29;7.20;99.90
59469;DHT22;45277;52.768;18.262;2024-03-23T04:11:01;7.10;99.90
59469;DHT22;45277;52.768;18.262;2024-03-23T04:12:33;7.20;99.90
59469;DHT22;45277;52.768;18.262;2024-03-23T04:14:04;7.30;99.90
59469;DHT22;45277;52.768;18.262;2024-03-23T04:15:35;7.30;99.90
59469;DHT22;45277;52.768;18.262;2024-03-23T04:17:07;7.30;99.90
59469;DHT22;45277;52.768;18.262;2024-03-23T04:18:38;7.30;99.90
59469;DHT22;45277;52.768;18.262;2024-03-23T04:20:10;7.20;99.90
59469;DHT22;45277;52.768;18.262;2024-03-23T04:21:42;7.20;99.90
59469;DHT22;45277;52.768;18.262;2024-03-23T04:23:13;7.10;99.90
59469;DHT22;45277;52.768;18.262;2024-03-23T04:24:45;7.10;99.90
59469;DHT22;45277;52.768;18.262;2024-03-23T04:26:16;7.20;99.90
59469;DHT22;45277;52.768;18.262;2024-03-23T04:27:47;7.20;99.90
59469;DHT22;45277;52.768;18.262;2024-03-23T04:29:18;7.20;99.90
59469;DHT22;45277;52.768;18.262;2024-03-23T04:30:49;7.20;99.90
59469;DHT22;45277;52.768;18.262;2024-03-23T04:32:21;7.20;99.90
59469;DHT22;45277;52.768;18.262;2024-03-23T04:33:52;7.20;99.90
59469;DHT22;45277;52.768;18.262;2024-03-23T04:35:23;7.20;99.90
59469;DHT22;45277;52.768;18.262;2024-03-23T04:36:56;7.30;99.90
59469;DHT22;45277;52.768;18.262;2024-03-23T04:38:27;7.20;99.90
59469;DHT22;45277;52.768;18.262;2024-03-23T04:40:00;7.20;99.90
59469;DHT22;45277;52.768;18.262;2024-03-23T04:41:32;7.20;99.90
59469;DHT22;45277;52.768;18.262;2024-03-23T04:43:03;7.30;99.90
59469;DHT22;45277;52.768;18.262;2024-03-23T04:44:35;7.20;99.90
59469;DHT22;45277;52.768;18.262;2024-03-23T04:46:06;7.20;99.90
59469;DHT22;45277;52.768;18.262;2024-03-23T04:47:38;7.10;99.90
59469;DHT22;45277;52.768;18.262;2024-03-23T04:49:09;7.10;99.90
59469;DHT22;45277;52.768;18.262;2024-03-23T04:50:41;7.00;99.90
59469;DHT22;45277;52.768;18.262;2024-03-23T04:52:12;7.00;99.90
59469;DHT22;45277;52.768;18.262;2024-03-23T04:53:43;7.00;99.90
59469;DHT22;45277;52.768;18.262;2024-03-23T04:55:14;7.00;99.90
59469;DHT22;45277;52.768;18.262;2024-03-23T04:56:46;7.00;99.90
59469;DHT22;45277;52.768;18.262;2024-03-23T04:58:17;7.10;99.90
59469;DHT22;45277;52.768;18.262;2024-03-23T04:59:49;7.10;99.90
59469;DHT22;45277;52.768;18.262;2024-03-23T05:01:20;7.10;99.90
59469;DHT22;45277;52.768;18.262;2024-03-23T05:02:51;7.10;99.90
59469;DHT22;45277;52.768;18.262;2024-03-23T05:04:23;7.10;99.90
59469;DHT22;45277;52.768;18.262;2024-03-23T05:05:54;7.00;99.90
59469;DHT22;45277;52.768;18.262;2024-03-23T05:07:26;7.00;99.90
59469;DHT22;45277;52.768;18.262;2024-03-23T05:08:57;7.00;99.90
59469;DHT22;45277;52.768;18.262;2024-03-23T05:10:28;7.00;99.90
59469;DHT22;45277;52.768;18.262;2024-03-23T05:12:00;7.00;99.90
59469;DHT22;45277;52.768;18.262;2024-03-23T05:13:32;7.00;99.90
59469;DHT22;45277;52.768;18.262;2024-03-23T05:15:06;7.00;99.90
59469;DHT22;45277;52.768;18.262;2024-03-23T05:16:40;7.00;99.90
59469;DHT22;45277;52.768;18.262;2024-03-23T05:18:12;7.00;99.90
59469;DHT22;45277;52.768;18.262;2024-03-23T05:19:43;7.00;99.90
59469;DHT22;45277;52.768;18.262;2024-03-23T05:21:15;7.00;99.90
59469;DHT22;45277;52.768;18.262;2024-03-23T05:22:46;7.00;99.90
59469;DHT22;45277;52.768;18.262;2024-03-23T05:24:17;7.00;99.90
59469;DHT22;45277;52.768;18.262;2024-03-23T05:25:48;7.00;99.90
59469;DHT22;45277;52.768;18.262;2024-03-23T05:27:20;7.00;99.90
59469;DHT22;45277;52.768;18.262;2024-03-23T05:28:51;7.10;99.90
59469;DHT22;45277;52.768;18.262;2024-03-23T05:30:22;7.10;99.90
59469;DHT22;45277;52.768;18.262;2024-03-23T05:31:54;7.10;99.90
59469;DHT22;45277;52.768;18.262;2024-03-23T05:33:27;7.10;99.90
59469;DHT22;45277;52.768;18.262;2024-03-23T05:34:58;7.10;99.90
59469;DHT22;45277;52.768;18.262;2024-03-23T05:36:30;7.10;99.90
59469;DHT22;45277;52.768;18.262;2024-03-23T05:38:03;7.20;99.90
59469;DHT22;45277;52.768;18.262;2024-03-23T05:39:34;7.20;99.90
59469;DHT22;45277;52.768;18.262;2024-03-23T05:41:06;7.20;99.90
59469;DHT22;45277;52.768;18.262;2024-03-23T05:42:37;7.30;99.90
59469;DHT22;45277;52.768;18.262;2024-03-23T05:44:08;7.30;99.90
59469;DHT22;45277;52.768;18.262;2024-03-23T05:45:39;7.30;99.90
59469;DHT22;45277;52.768;18.262;2024-03-23T05:47:12;7.20;99.90
59469;DHT22;45277;52.768;18.262;2024-03-23T05:48:47;7.20;99.90
59469;DHT22;45277;52.768;18.262;2024-03-23T05:50:18;7.20;99.90
59469;DHT22;45277;52.768;18.262;2024-03-23T05:51:49;7.20;99.90
59469;DHT22;45277;52.768;18.262;2024-03-23T05:53:21;7.20;99.90
59469;DHT22;45277;52.768;18.262;2024-03-23T05:54:52;7.10;99.90
59469;DHT22;45277;52.768;18.262;2024-03-23T05:56:23;7.10;99.90
59469;DHT22;45277;52.768;18.262;2024-03-23T05:57:56;7.20;99.90
59469;DHT22;45277;52.768;18.262;2024-03-23T05:59:28;7.20;99.90
59469;DHT22;45277;52.768;18.262;2024-03-23T06:01:01;7.20;99.90
59469;DHT22;45277;52.768;18.262;2024-03-23T06:02:33;7.20;99.90
59469;DHT22;45277;52.768;18.262;2024-03-23T06:04:04;7.20;99.90
59469;DHT22;45277;52.768;18.262;2024-03-23T06:05:38;7.20;99.90
59469;DHT22;45277;52.768;18.262;2024-03-23T06:07:09;7.20;99.90
59469;DHT22;45277;52.768;18.262;2024-03-23T06:08:45;7.30;99.90
59469;DHT22;45277;52.768;18.262;2024-03-23T06:10:16;7.20;99.90
59469;DHT22;45277;52.768;18.262;2024-03-23T06:11:48;7.30;99.90
59469;DHT22;45277;52.768;18.262;2024-03-23T06:13:20;7.30;99.90
59469;DHT22;45277;52.768;18.262;2024-03-23T06:14:55;7.40;99.90
59469;DHT22;45277;52.768;18.262;2024-03-23T06:16:26;7.40;99.90
59469;DHT22;45277;52.768;18.262;2024-03-23T06:17:59;7.50;99.90
59469;DHT22;45277;52.768;18.262;2024-03-23T06:19:30;7.40;99.90
59469;DHT22;45277;52.768;18.262;2024-03-23T06:21:01;7.40;99.90
59469;DHT22;45277;52.768;18.262;2024-03-23T06:22:32;7.40;99.90
59469;DHT22;45277;52.768;18.262;2024-03-23T06:24:04;7.40;99.90
59469;DHT22;45277;52.768;18.262;2024-03-23T06:25:35;7.40;99.90
59469;DHT22;45277;52.768;18.262;2024-03-23T06:27:07;7.40;99.90
59469;DHT22;45277;52.768;18.262;2024-03-23T06:28:38;7.30;99.90
59469;DHT22;45277;52.768;18.262;2024-03-23T06:30:10;7.30;99.90
59469;DHT22;45277;52.768;18.262;2024-03-23T06:31:41;7.30;99.90
59469;DHT22;45277;52.768;18.262;2024-03-23T06:33:12;7.30;99.90
59469;DHT22;45277;52.768;18.262;2024-03-23T06:34:44;7.30;99.90
59469;DHT22;45277;52.768;18.262;2024-03-23T06:36:16;7.30;99.90
59469;DHT22;45277;52.768;18.262;2024-03-23T06:37:47;7.30;99.90
59469;DHT22;45277;52.768;18.262;2024-03-23T06:39:18;7.40;99.90
59469;DHT22;45277;52.768;18.262;2024-03-23T06:40:49;7.40;99.90
59469;DHT22;45277;52.768;18.262;2024-03-23T06:42:23;7.40;99.90
59469;DHT22;45277;52.768;18.262;2024-03-23T06:43:54;7.40;99.90
59469;DHT22;45277;52.768;18.262;2024-03-23T06:45:26;7.40;99.90
59469;DHT22;45277;52.768;18.262;2024-03-23T06:46:57;7.50;99.90
59469;DHT22;45277;52.768;18.262;2024-03-23T06:48:28;7.50;99.90
59469;DHT22;45277;52.768;18.262;2024-03-23T06:50:01;7.50;99.90
59469;DHT22;45277;52.768;18.262;2024-03-23T06:51:35;7.50;99.90
59469;DHT22;45277;52.768;18.262;2024-03-23T06:53:06;7.50;99.90
59469;DHT22;45277;52.768;18.262;2024-03-23T06:54:37;7.50;99.90
59469;DHT22;45277;52.768;18.262;2024-03-23T06:56:09;7.50;99.90
59469;DHT22;45277;52.768;18.262;2024-03-23T06:57:40;7.60;99.90
59469;DHT22;45277;52.768;18.262;2024-03-23T06:59:12;7.60;99.90
59469;DHT22;45277;52.768;18.262;2024-03-23T07:00:43;7.70;99.90
59469;DHT22;45277;52.768;18.262;2024-03-23T07:02:14;7.70;99.90
59469;DHT22;45277;52.768;18.262;2024-03-23T07:03:47;7.80;99.90
59469;DHT22;45277;52.768;18.262;2024-03-23T07:05:18;7.80;99.90
59469;DHT22;45277;52.768;18.262;2024-03-23T07:06:49;7.80;99.90
59469;DHT22;45277;52.768;18.262;2024-03-23T07:08:20;7.80;99.90
59469;DHT22;45277;52.768;18.262;2024-03-23T07:09:53;7.80;99.90
59469;DHT22;45277;52.768;18.262;2024-03-23T07:11:24;7.80;99.90
59469;DHT22;45277;52.768;18.262;2024-03-23T07:12:56;7.70;99.90
59469;DHT22;45277;52.768;18.262;2024-03-23T07:14:27;7.70;99.90
59469;DHT22;45277;52.768;18.262;2024-03-23T07:15:58;7.70;99.90
59469;DHT22;45277;52.768;18.262;2024-03-23T07:17:30;7.60;99.90
59469;DHT22;45277;52.768;18.262;2024-03-23T07:19:03;7.60;99.90
59469;DHT22;45277;52.768;18.262;2024-03-23T07:20:35;7.60;99.90
59469;DHT22;45277;52.768;18.262;2024-03-23T07:22:06;7.60;99.90
59469;DHT22;45277;52.768;18.262;2024-03-23T07:23:38;7.60;99.90
59469;DHT22;45277;52.768;18.262;2024-03-23T07:25:13;7.60;99.90
59469;DHT22;45277;52.768;18.262;2024-03-23T07:26:44;7.60;99.90
59469;DHT22;45277;52.768;18.262;2024-03-23T07:28:15;7.50;99.90
59469;DHT22;45277;52.768;18.262;2024-03-23T07:29:46;7.50;99.90
59469;DHT22;45277;52.768;18.262;2024-03-23T07:31:18;7.50;99.90
59469;DHT22;45277;52.768;18.262;2024-03-23T07:32:49;7.50;99.90
59469;DHT22;45277;52.768;18.262;2024-03-23T07:34:20;7.60;99.90
59469;DHT22;45277;52.768;18.262;2024-03-23T07:35:52;7.60;99.90
59469;DHT22;45277;52.768;18.262;2024-03-23T07:37:24;7.60;99.90
59469;DHT22;45277;52.768;18.262;2024-03-23T07:38:56;7.50;99.90
59469;DHT22;45277;52.768;18.262;2024-03-23T07:40:27;7.50;99.90
59469;DHT22;45277;52.768;18.262;2024-03-23T07:41:59;7.50;99.90
59469;DHT22;45277;52.768;18.262;2024-03-23T07:43:30;7.60;99.90
59469;DHT22;45277;52.768;18.262;2024-03-23T07:45:01;7.60;99.90
59469;DHT22;45277;52.768;18.262;2024-03-23T07:46:33;7.80;99.90
59469;DHT22;45277;52.768;18.262;2024-03-23T07:48:04;7.80;99.90
59469;DHT22;45277;52.768;18.262;2024-03-23T07:49:35;7.70;99.90
59469;DHT22;45277;52.768;18.262;2024-03-23T07:51:16;7.70;99.90
59469;DHT22;45277;52.768;18.262;2024-03-23T07:52:47;7.60;99.90
59469;DHT22;45277;52.768;18.262;2024-03-23T07:54:18;7.60;99.90
59469;DHT22;45277;52.768;18.262;2024-03-23T07:55:58;7.50;99.90
59469;DHT22;45277;52.768;18.262;2024-03-23T07:57:30;7.60;99.90
59469;DHT22;45277;52.768;18.262;2024-03-23T07:59:01;7.60;99.90
59469;DHT22;45277;52.768;18.262;2024-03-23T08:00:34;7.60;99.90
59469;DHT22;45277;52.768;18.262;2024-03-23T08:02:05;7.60;99.90
59469;DHT22;45277;52.768;18.262;2024-03-23T08:03:38;7.70;99.90
59469;DHT22;45277;52.768;18.262;2024-03-23T08:05:09;7.80;99.90
59469;DHT22;45277;52.768;18.262;2024-03-23T08:06:41;7.80;99.90
59469;DHT22;45277;52.768;18.262;2024-03-23T08:08:12;7.80;99.90
59469;DHT22;45277;52.768;18.262;2024-03-23T08:09:44;7.70;99.90
59469;DHT22;45277;52.768;18.262;2024-03-23T08:11:15;7.80;99.90
59469;DHT22;45277;52.768;18.262;2024-03-23T08:12:46;7.80;99.90
59469;DHT22;45277;52.768;18.262;2024-03-23T08:14:17;7.80;99.90
59469;DHT22;45277;52.768;18.262;2024-03-23T08:15:49;7.70;99.90
59469;DHT22;45277;52.768;18.262;2024-03-23T08:17:20;7.70;99.90
59469;DHT22;45277;52.768;18.262;2024-03-23T08:18:51;7.70;99.90
59469;DHT22;45277;52.768;18.262;2024-03-23T08:20:23;7.80;99.90
59469;DHT22;45277;52.768;18.262;2024-03-23T08:21:54;7.80;99.90
59469;DHT22;45277;52.768;18.262;2024-03-23T08:23:26;7.80;99.90
59469;DHT22;45277;52.768;18.262;2024-03-23T08:24:57;7.90;99.90
59469;DHT22;45277;52.768;18.262;2024-03-23T08:26:29;7.90;99.90
59469;DHT22;45277;52.768;18.262;2024-03-23T08:28:00;7.90;99.90
59469;DHT22;45277;52.768;18.262;2024-03-23T08:29:31;8.00;99.90
59469;DHT22;45277;52.768;18.262;2024-03-23T08:31:06;8.10;99.90
59469;DHT22;45277;52.768;18.262;2024-03-23T08:32:38;8.10;99.90
59469;DHT22;45277;52.768;18.262;2024-03-23T08:34:09;8.10;99.90
59469;DHT22;45277;52.768;18.262;2024-03-23T08:35:41;8.10;99.90
59469;DHT22;45277;52.768;18.262;2024-03-23T08:37:13;8.10;99.90
59469;DHT22;45277;52.768;18.262;2024-03-23T08:38:44;8.20;99.90
59469;DHT22;45277;52.768;18.262;2024-03-23T08:40:15;8.30;99.90
59469;DHT22;45277;52.768;18.262;2024-03-23T08:41:46;8.30;99.90
59469;DHT22;45277;52.768;18.262;2024-03-23T08:43:17;8.30;99.90
59469;DHT22;45277;52.768;18.262;2024-03-23T08:44:49;8.40;99.90
59469;DHT22;45277;52.768;18.262;2024-03-23T08:46:23;8.20;99.90
59469;DHT22;45277;52.768;18.262;2024-03-23T08:47:54;8.20;99.90
59469;DHT22;45277;52.768;18.262;2024-03-23T08:49:25;8.20;99.90
59469;DHT22;45277;52.768;18.262;2024-03-23T08:51:01;8.20;99.90
59469;DHT22;45277;52.768;18.262;2024-03-23T08:52:32;8.30;99.90
59469;DHT22;45277;52.768;18.262;2024-03-23T08:54:03;8.40;99.90
59469;DHT22;45277;52.768;18.262;2024-03-23T08:55:35;8.40;99.90
59469;DHT22;45277;52.768;18.262;2024-03-23T08:57:06;8.40;99.90
59469;DHT22;45277;52.768;18.262;2024-03-23T08:58:38;8.40;99.90
59469;DHT22;45277;52.768;18.262;2024-03-23T09:00:10;8.40;99.90
59469;DHT22;45277;52.768;18.262;2024-03-23T09:01:42;8.40;99.90
59469;DHT22;45277;52.768;18.262;2024-03-23T09:03:13;8.30;99.90
59469;DHT22;45277;52.768;18.262;2024-03-23T09:04:44;8.20;99.90
59469;DHT22;45277;52.768;18.262;2024-03-23T09:06:16;8.20;99.90
59469;DHT22;45277;52.768;18.262;2024-03-23T09:07:47;8.20;99.90
59469;DHT22;45277;52.768;18.262;2024-03-23T09:09:19;8.20;99.90
59469;DHT22;45277;52.768;18.262;2024-03-23T09:10:51;8.20;99.90
59469;DHT22;45277;52.768;18.262;2024-03-23T09:12:22;8.10;99.90
59469;DHT22;45277;52.768;18.262;2024-03-23T09:13:54;8.10;99.90
59469;DHT22;45277;52.768;18.262;2024-03-23T09:15:25;8.00;99.90
59469;DHT22;45277;52.768;18.262;2024-03-23T09:16:56;8.00;99.90
59469;DHT22;45277;52.768;18.262;2024-03-23T09:18:31;7.90;99.90
59469;DHT22;45277;52.768;18.262;2024-03-23T09:20:02;7.90;99.90
59469;DHT22;45277;52.768;18.262;2024-03-23T09:21:35;7.80;99.90
59469;DHT22;45277;52.768;18.262;2024-03-23T09:23:06;7.70;99.90
59469;DHT22;45277;52.768;18.262;2024-03-23T09:24:39;7.60;99.90
59469;DHT22;45277;52.768;18.262;2024-03-23T09:26:10;7.60;99.90
59469;DHT22;45277;52.768;18.262;2024-03-23T09:27:41;7.70;99.90
59469;DHT22;45277;52.768;18.262;2024-03-23T09:29:12;7.80;99.90
59469;DHT22;45277;52.768;18.262;2024-03-23T09:30:43;8.10;99.90
59469;DHT22;45277;52.768;18.262;2024-03-23T09:32:15;8.30;99.90
59469;DHT22;45277;52.768;18.262;2024-03-23T09:33:46;8.40;99.90
59469;DHT22;45277;52.768;18.262;2024-03-23T09:35:17;8.50;99.90
59469;DHT22;45277;52.768;18.262;2024-03-23T09:36:52;8.50;99.90
59469;DHT22;45277;52.768;18.262;2024-03-23T09:38:23;8.40;99.90
59469;DHT22;45277;52.768;18.262;2024-03-23T09:39:54;8.30;99.90
59469;DHT22;45277;52.768;18.262;2024-03-23T09:41:26;8.20;99.90
59469;DHT22;45277;52.768;18.262;2024-03-23T09:42:57;8.00;99.90
59469;DHT22;45277;52.768;18.262;2024-03-23T09:44:28;8.00;99.90
59469;DHT22;45277;52.768;18.262;2024-03-23T09:46:01;8.00;99.90
59469;DHT22;45277;52.768;18.262;2024-03-23T09:47:33;8.10;99.90
59469;DHT22;45277;52.768;18.262;2024-03-23T09:49:07;8.20;99.90
59469;DHT22;45277;52.768;18.262;2024-03-23T09:50:41;8.30;99.90
59469;DHT22;45277;52.768;18.262;2024-03-23T09:52:12;8.40;99.90
59469;DHT22;45277;52.768;18.262;2024-03-23T09:53:43;8.40;99.90
59469;DHT22;45277;52.768;18.262;2024-03-23T09:55:15;8.60;99.90
59469;DHT22;45277;52.768;18.262;2024-03-23T09:56:46;8.70;99.90
59469;DHT22;45277;52.768;18.262;2024-03-23T09:58:18;8.70;99.90
59469;DHT22;45277;52.768;18.262;2024-03-23T09:59:49;8.60;99.90
59469;DHT22;45277;52.768;18.262;2024-03-23T10:01:21;8.40;99.90
59469;DHT22;45277;52.768;18.262;2024-03-23T10:02:55;8.30;99.90
59469;DHT22;45277;52.768;18.262;2024-03-23T10:04:39;8.40;99.90
59469;DHT22;45277;52.768;18.262;2024-03-23T10:06:10;8.30;99.90
59469;DHT22;45277;52.768;18.262;2024-03-23T10:07:41;8.30;99.90
59469;DHT22;45277;52.768;18.262;2024-03-23T10:09:16;8.30;99.90
59469;DHT22;45277;52.768;18.262;2024-03-23T10:10:51;8.30;99.90
59469;DHT22;45277;52.768;18.262;2024-03-23T10:12:23;8.30;99.90
59469;DHT22;45277;52.768;18.262;2024-03-23T10:13:55;8.20;99.90
59469;DHT22;45277;52.768;18.262;2024-03-23T10:15:27;8.20;99.90
59469;DHT22;45277;52.768;18.262;2024-03-23T10:17:11;8.30;99.90
59469;DHT22;45277;52.768;18.262;2024-03-23T10:18:48;8.40;99.90
59469;DHT22;45277;52.768;18.262;2024-03-23T10:20:21;8.40;99.90
59469;DHT22;45277;52.768;18.262;2024-03-23T10:21:56;8.30;99.90
59469;DHT22;45277;52.768;18.262;2024-03-23T10:23:27;8.30;99.90
59469;DHT22;45277;52.768;18.262;2024-03-23T10:25:10;8.30;99.90
59469;DHT22;45277;52.768;18.262;2024-03-23T10:26:41;8.20;99.90
59469;DHT22;45277;52.768;18.262;2024-03-23T10:28:13;8.20;99.90
59469;DHT22;45277;52.768;18.262;2024-03-23T10:29:48;8.20;99.90
59469;DHT22;45277;52.768;18.262;2024-03-23T10:31:21;8.30;99.90
59469;DHT22;45277;52.768;18.262;2024-03-23T10:33:10;8.20;99.90